Whitehall, Louisiana
Current Conditions -  °F | °C
As of 8:35 AM on Friday 28 Nov 2014 (Local Time) from KOPL Reporting Station
Clear Clear  
Wind Chill: 37°   Ceiling: Unl
Heat Index: 43°   Visibility: 10mi
Dew Point: 36°   Wind: 9mph
Humidity: 76%   Direction: 100°E
Pressure: 30.42"   Gusts: NA
Location:  30.9328°N, 92.1876°W
Report Text: KOPL 281435Z AUTO 10008KT 10SM CLR 06/02 A3042 RMK AO2 T00600020
Loading
Personal Weather Stations






























Interactive Weather Map New forecast layout! Learn more

10-Day Weather Forecast

Advertisements
Track Severe Weather on mobile